Time;durP1;ratioP1;P1;durP2;ratioP2;P2;SDS_P1;SDS_P2;PMS_P1;PMS_P2;Temp;Humidity;BMP_temperature;BMP_pressure;BME280_temperature;BME280_humidity;BME280_pressure;Samples;Min_cycle;Max_cycle;Signal;HPM_P1;HPM_P2
2021/12/04 09:31:49;;;;;;;2.70;1.37;;;7.50;99.90;;;;;;4980991;23;20284;-81
2021/12/04 10:02:04;;;;;;;2.97;1.30;;;7.90;99.90;;;;;;4976556;28;20669;-78
2021/12/04 10:24:13;;;;;;;3.23;1.27;;;7.60;99.90;;;;;;4976567;28;20273;-85
2021/12/04 10:34:57;;;;;;;4.33;1.83;;;7.80;99.90;;;;;;4962134;29;20571;-83
2021/12/04 10:37:28;;;;;;;3.87;1.93;;;7.80;99.90;;;;;;4960036;28;20210;-81
2021/12/04 10:39:57;;;;;;;4.93;1.90;;;7.70;99.90;;;;;;4958983;28;20306;-82
2021/12/04 10:42:28;;;;;;;4.00;2.50;;;7.60;99.90;;;;;;4960211;28;20203;-81
2021/12/04 10:44:57;;;;;;;4.40;1.87;;;7.40;99.90;;;;;;4973744;28;20234;-81
2021/12/04 10:47:26;;;;;;;7.43;2.23;;;7.50;99.90;;;;;;4974481;28;20211;-80
2021/12/04 10:50:05;;;;;;;4.30;1.93;;;7.30;99.90;;;;;;4974439;28;20239;-80
2021/12/04 10:52:47;;;;;;;6.27;2.30;;;7.20;99.90;;;;;;4975013;28;20230;-80
2021/12/04 10:55:19;;;;;;;5.30;2.30;;;7.30;99.90;;;;;;4974547;28;20231;-80
2021/12/04 11:00:52;;;;;;;6.33;2.70;;;7.20;99.90;;;;;;4974150;28;20246;-80
2021/12/04 11:03:30;;;;;;;6.90;2.60;;;7.20;99.90;;;;;;4959358;28;20263;-80
2021/12/04 11:22:49;;;;;;;4.67;2.30;;;7.10;99.90;;;;;;4946118;28;20204;-78
2021/12/04 11:39:27;;;;;;;2.43;1.50;;;6.80;99.90;;;;;;4953675;29;20223;-80
2021/12/04 11:42:04;;;;;;;2.87;1.47;;;6.80;99.90;;;;;;4960605;28;20249;-81
2021/12/04 11:44:44;;;;;;;4.03;1.97;;;6.80;99.90;;;;;;4974075;28;20207;-80
2021/12/04 11:47:11;;;;;;;2.57;1.30;;;6.80;99.90;;;;;;4973836;28;20207;-79
2021/12/04 11:49:38;;;;;;;2.97;1.33;;;6.80;99.90;;;;;;4973698;28;20234;-80
2021/12/04 11:52:14;;;;;;;2.63;1.63;;;6.80;99.90;;;;;;4973874;28;20213;-79
2021/12/04 11:54:46;;;;;;;3.57;1.70;;;6.80;99.90;;;;;;4974197;28;20210;-80
2021/12/04 11:57:16;;;;;;;2.57;1.70;;;6.90;99.90;;;;;;4973402;28;20203;-80
2021/12/04 11:59:45;;;;;;;2.00;1.37;;;6.90;99.90;;;;;;4973551;28;20211;-82
2021/12/04 12:02:24;;;;;;;2.20;1.37;;;6.90;99.90;;;;;;4974013;28;20218;-81
2021/12/04 12:04:54;;;;;;;4.60;1.43;;;6.90;99.90;;;;;;4974344;28;20210;-81
2021/12/04 12:07:23;;;;;;;3.13;1.67;;;7.00;99.90;;;;;;4960473;28;20662;-77
2021/12/04 12:10:04;;;;;;;2.90;1.50;;;7.00;99.90;;;;;;4973047;28;20239;-79
2021/12/04 12:12:34;;;;;;;2.27;1.50;;;7.10;99.90;;;;;;4969427;28;20208;-81
2021/12/04 12:15:05;;;;;;;2.23;1.40;;;7.10;99.90;;;;;;4970039;28;20214;-80
2021/12/04 12:17:35;;;;;;;2.27;1.60;;;7.10;99.90;;;;;;4973757;28;20250;-77
2021/12/04 12:20:04;;;;;;;3.77;2.03;;;7.20;99.90;;;;;;4972876;28;20294;-80
2021/12/04 12:22:37;;;;;;;3.70;1.90;;;7.30;99.90;;;;;;4975748;28;20305;-80
2021/12/04 12:25:27;;;;;;;2.20;1.30;;;7.40;99.90;;;;;;4977070;28;20653;-80
2021/12/04 12:33:38;;;;;;;3.47;1.70;;;7.20;99.90;;;;;;4967883;28;20217;-80
2021/12/04 12:36:09;;;;;;;2.47;1.50;;;7.20;99.90;;;;;;4976779;28;20210;-77
2021/12/04 12:38:46;;;;;;;2.40;1.40;;;7.10;99.90;;;;;;4958579;28;20579;-80
2021/12/04 12:41:25;;;;;;;2.47;1.70;;;7.10;99.90;;;;;;4956873;28;20262;-77
2021/12/04 12:44:01;;;;;;;2.20;1.60;;;7.10;99.90;;;;;;4973787;28;20630;-79
2021/12/04 12:46:42;;;;;;;4.07;1.50;;;7.20;99.90;;;;;;4976636;28;20214;-78
2021/12/04 12:49:23;;;;;;;5.73;1.83;;;7.20;99.90;;;;;;4976525;28;20245;-77
2021/12/04 12:51:57;;;;;;;3.23;1.67;;;7.30;99.90;;;;;;4976797;28;20308;-79
2021/12/04 12:54:27;;;;;;;2.30;1.47;;;7.20;99.90;;;;;;4974740;28;20294;-79
2021/12/04 12:57:08;;;;;;;2.83;1.80;;;7.40;99.90;;;;;;4973510;28;20662;-76
2021/12/04 12:59:55;;;;;;;2.10;1.80;;;7.40;99.90;;;;;;4976735;28;20301;-77
2021/12/04 13:13:33;;;;;;;3.33;1.80;;;7.40;99.90;;;;;;4972509;28;20269;-77
2021/12/04 13:16:13;;;;;;;3.17;1.90;;;7.50;99.90;;;;;;4973813;28;20295;-77
2021/12/04 13:18:40;;;;;;;2.80;1.90;;;7.40;99.90;;;;;;4960016;28;20592;-73
2021/12/04 13:21:10;;;;;;;4.77;1.93;;;7.40;99.90;;;;;;4959514;28;20239;-72
2021/12/04 13:23:38;;;;;;;3.50;1.60;;;7.30;99.90;;;;;;4968449;28;20479;-82
2021/12/04 13:26:09;;;;;;;3.00;1.80;;;7.20;99.90;;;;;;4964850;28;20199;-78
2021/12/04 13:28:39;;;;;;;3.40;1.67;;;7.30;99.90;;;;;;4970054;28;20238;-76
2021/12/04 13:31:08;;;;;;;3.03;2.00;;;7.20;99.90;;;;;;4965985;28;20239;-74
2021/12/04 13:33:37;;;;;;;3.50;2.10;;;7.30;99.90;;;;;;4953794;28;20208;-76
2021/12/04 13:36:05;;;;;;;2.90;1.80;;;7.30;99.90;;;;;;4966517;28;20236;-79
2021/12/04 13:38:31;;;;;;;4.47;2.20;;;7.30;99.90;;;;;;4962247;28;21041;-78
2021/12/04 13:40:58;;;;;;;5.60;2.10;;;7.40;99.90;;;;;;4955051;28;20303;-76
2021/12/04 13:43:26;;;;;;;5.83;1.60;;;7.50;99.90;;;;;;4958819;28;20662;-74
2021/12/04 13:45:58;;;;;;;3.00;1.43;;;7.50;99.90;;;;;;4974696;28;20214;-74
2021/12/04 13:48:26;;;;;;;7.87;4.17;;;7.50;99.90;;;;;;4961528;28;20247;-74
2021/12/04 13:50:53;;;;;;;7.20;3.10;;;7.40;99.90;;;;;;4955208;28;20243;-75
2021/12/04 13:53:25;;;;;;;7.10;2.50;;;7.30;99.90;;;;;;4954954;28;20627;-73
2021/12/04 13:55:55;;;;;;;3.03;2.00;;;7.40;99.90;;;;;;4954330;28;20294;-77
2021/12/04 13:58:23;;;;;;;4.23;1.80;;;7.50;99.90;;;;;;4955756;28;20231;-75
2021/12/04 14:00:50;;;;;;;4.27;2.87;;;7.50;99.90;;;;;;4954740;28;20196;-76
2021/12/04 14:03:24;;;;;;;4.10;2.27;;;7.60;99.90;;;;;;4953973;28;20299;-77
2021/12/04 14:05:53;;;;;;;8.27;2.70;;;7.60;99.90;;;;;;4954500;28;20233;-78
2021/12/04 14:08:21;;;;;;;4.37;1.80;;;7.60;99.90;;;;;;4956004;28;20575;-80
2021/12/04 14:10:49;;;;;;;2.40;1.70;;;7.70;99.90;;;;;;4953832;28;20240;-76
2021/12/04 14:13:19;;;;;;;2.50;1.80;;;7.50;99.90;;;;;;4965078;28;20669;-74
2021/12/04 14:15:47;;;;;;;3.67;2.03;;;7.60;99.90;;;;;;4962346;28;20208;-73
2021/12/04 14:18:16;;;;;;;3.90;1.73;;;7.70;99.90;;;;;;4960301;28;20230;-74
2021/12/04 14:20:48;;;;;;;4.73;2.63;;;7.90;99.90;;;;;;4967977;28;20206;-73
2021/12/04 14:23:16;;;;;;;4.20;2.10;;;7.90;99.90;;;;;;4973257;28;20234;-73
2021/12/04 14:25:44;;;;;;;3.07;1.67;;;7.70;99.90;;;;;;4973861;28;20250;-73
2021/12/04 14:28:13;;;;;;;3.10;1.80;;;7.70;99.90;;;;;;4955511;28;20283;-72
2021/12/04 14:30:44;;;;;;;2.13;1.63;;;7.70;99.90;;;;;;4953381;28;20235;-75
2021/12/04 14:33:15;;;;;;;2.27;1.50;;;7.60;99.90;;;;;;4953174;28;20267;-74
2021/12/04 14:35:45;;;;;;;3.03;1.37;;;7.60;99.90;;;;;;4960368;28;20199;-73
2021/12/04 14:38:14;;;;;;;3.10;1.50;;;7.60;99.90;;;;;;4971107;28;20229;-73
2021/12/04 14:40:44;;;;;;;3.43;1.83;;;7.60;99.90;;;;;;4972514;28;20215;-73
2021/12/04 14:43:12;;;;;;;2.87;1.50;;;7.50;99.90;;;;;;4957821;28;20210;-74
2021/12/04 14:45:41;;;;;;;4.73;1.20;;;7.40;99.90;;;;;;4971718;28;20267;-73
2021/12/04 14:48:10;;;;;;;3.83;1.60;;;7.30;99.90;;;;;;4971453;28;20235;-73
2021/12/04 14:50:40;;;;;;;2.37;0.90;;;7.30;99.90;;;;;;4969858;28;20239;-75
2021/12/04 14:53:10;;;;;;;5.43;1.87;;;7.40;99.90;;;;;;4971399;28;20199;-76
2021/12/04 14:55:40;;;;;;;5.33;1.40;;;7.40;99.90;;;;;;4959430;28;20253;-74
2021/12/04 14:58:13;;;;;;;3.43;1.00;;;7.50;99.90;;;;;;4964711;28;20314;-82
2021/12/04 15:00:44;;;;;;;4.17;1.43;;;7.40;99.90;;;;;;4966503;28;20871;-75
2021/12/04 15:03:15;;;;;;;7.43;1.60;;;7.40;99.90;;;;;;4969669;28;20683;-78
2021/12/04 15:05:46;;;;;;;4.23;1.63;;;7.50;99.90;;;;;;4972520;28;20565;-78
2021/12/04 15:08:16;;;;;;;7.27;2.13;;;7.30;99.90;;;;;;4962318;28;20236;-75
2021/12/04 15:10:44;;;;;;;4.60;2.10;;;7.20;99.90;;;;;;4954981;28;20235;-76
2021/12/04 15:13:19;;;;;;;4.50;1.10;;;7.20;99.90;;;;;;4965666;28;20290;-73
2021/12/04 15:15:47;;;;;;;6.60;1.20;;;7.10;99.90;;;;;;4969310;28;20202;-75
2021/12/04 15:18:16;;;;;;;5.37;1.43;;;7.10;99.90;;;;;;4952212;28;20232;-76
2021/12/04 15:20:54;;;;;;;3.70;1.10;;;7.10;99.90;;;;;;4953525;28;20348;-73
2021/12/04 15:23:26;;;;;;;2.43;1.40;;;7.10;99.90;;;;;;4954211;28;20668;-73
2021/12/04 15:25:55;;;;;;;2.93;1.37;;;7.00;99.90;;;;;;4954425;28;20208;-73
2021/12/04 15:28:27;;;;;;;3.63;1.33;;;6.90;99.90;;;;;;4953408;28;20627;-73
2021/12/04 15:30:56;;;;;;;5.60;2.50;;;6.80;99.90;;;;;;4953905;28;20231;-73
2021/12/04 15:33:26;;;;;;;8.70;2.83;;;6.70;99.90;;;;;;4954064;28;20204;-73
2021/12/04 15:35:54;;;;;;;6.43;2.43;;;6.70;99.90;;;;;;4964363;28;20262;-73
2021/12/04 15:38:38;;;;;;;5.50;2.10;;;6.70;99.90;;;;;;4961877;28;20232;-73
2021/12/04 15:41:13;;;;;;;12.57;2.37;;;6.70;99.90;;;;;;4954280;28;20548;-73
2021/12/04 15:43:43;;;;;;;7.67;1.77;;;6.80;99.90;;;;;;4954105;28;20199;-73
2021/12/04 15:46:18;;;;;;;5.93;2.20;;;6.80;99.90;;;;;;4954477;28;20208;-73
2021/12/04 15:54:28;;;;;;;5.93;1.83;;;6.70;99.90;;;;;;4941413;28;20196;-73
2021/12/04 15:56:55;;;;;;;10.17;2.40;;;6.50;99.90;;;;;;4972974;28;20210;-73
2021/12/04 15:59:27;;;;;;;9.57;3.40;;;6.50;99.90;;;;;;4954613;28;20230;-73
2021/12/04 16:01:57;;;;;;;7.73;1.90;;;6.70;99.90;;;;;;4954293;28;20214;-74
2021/12/04 16:04:26;;;;;;;5.30;1.50;;;6.60;99.90;;;;;;4953582;28;20212;-73
2021/12/04 16:06:54;;;;;;;3.23;1.17;;;6.60;99.90;;;;;;4954061;28;20215;-73
2021/12/04 16:09:31;;;;;;;10.33;1.97;;;6.60;99.90;;;;;;4953263;28;20228;-74
2021/12/04 16:12:02;;;;;;;3.23;1.43;;;6.50;99.90;;;;;;4956853;28;20212;-73
2021/12/04 16:14:31;;;;;;;7.37;1.97;;;6.50;99.90;;;;;;4953814;28;20212;-74
2021/12/04 16:16:58;;;;;;;3.93;1.10;;;6.40;99.90;;;;;;4953195;28;20214;-74
2021/12/04 16:19:27;;;;;;;1.83;1.10;;;6.30;99.90;;;;;;4953513;28;20324;-73
2021/12/04 16:21:59;;;;;;;3.27;1.00;;;6.20;99.90;;;;;;4954338;28;20306;-73
2021/12/04 16:24:26;;;;;;;3.07;1.10;;;6.10;99.90;;;;;;4954098;28;20588;-73
2021/12/04 16:26:58;;;;;;;7.53;1.90;;;6.00;99.90;;;;;;4954216;28;20204;-74
2021/12/04 16:29:26;;;;;;;8.80;1.70;;;6.00;99.90;;;;;;4954249;28;20236;-74
2021/12/04 16:32:32;;;;;;;11.57;1.30;;;6.00;99.90;;;;;;4953998;28;20232;-74
2021/12/04 16:37:50;;;;;;;5.57;1.23;;;6.00;99.90;;;;;;4948467;28;20232;-73
2021/12/04 16:40:21;;;;;;;8.07;2.97;;;5.90;99.90;;;;;;4954003;28;20212;-73
2021/12/04 16:42:51;;;;;;;11.73;4.60;;;6.00;99.90;;;;;;4953522;28;20735;-74
2021/12/04 16:45:19;;;;;;;8.20;3.77;;;6.00;99.90;;;;;;4953860;28;20218;-74
2021/12/04 16:47:53;;;;;;;9.13;2.47;;;6.00;99.90;;;;;;4953627;28;20227;-74
2021/12/04 16:50:21;;;;;;;6.20;2.30;;;6.10;99.90;;;;;;4954262;28;20294;-74
2021/12/04 16:56:04;;;;;;;10.10;1.97;;;6.10;99.90;;;;;;4937183;28;20208;-74
2021/12/04 16:58:31;;;;;;;6.10;3.00;;;6.00;99.90;;;;;;4953721;28;20256;-73
2021/12/04 17:01:02;;;;;;;8.67;2.23;;;6.00;99.90;;;;;;4953914;28;20659;-73
2021/12/04 17:03:30;;;;;;;2.60;1.30;;;5.90;99.90;;;;;;4953753;28;20208;-73
2021/12/04 17:05:57;;;;;;;8.27;2.57;;;6.00;99.90;;;;;;4953675;28;20205;-73
2021/12/04 17:08:25;;;;;;;6.67;1.50;;;6.00;99.90;;;;;;4956358;28;20568;-73
2021/12/04 17:10:52;;;;;;;6.47;1.87;;;6.10;99.90;;;;;;4957128;28;20243;-74
2021/12/04 17:13:19;;;;;;;8.03;1.63;;;6.10;99.90;;;;;;4957293;28;20303;-73
2021/12/04 17:15:48;;;;;;;8.37;3.03;;;6.10;99.90;;;;;;4957050;28;20212;-74
2021/12/04 17:18:16;;;;;;;6.97;1.87;;;6.10;99.90;;;;;;4956987;28;20224;-74
2021/12/04 17:20:46;;;;;;;9.03;1.53;;;6.10;99.90;;;;;;4956401;28;20263;-74
2021/12/04 17:23:13;;;;;;;4.90;1.50;;;6.20;99.90;;;;;;4956748;28;20215;-73
2021/12/04 17:25:41;;;;;;;6.03;1.70;;;6.20;99.90;;;;;;4956499;28;20204;-74
2021/12/04 17:28:10;;;;;;;6.40;1.93;;;6.20;99.90;;;;;;4955757;28;20228;-73
2021/12/04 17:30:37;;;;;;;6.60;1.97;;;6.30;99.90;;;;;;4955542;28;20231;-73
2021/12/04 17:33:04;;;;;;;4.53;1.70;;;6.30;99.90;;;;;;4956054;28;20211;-74
2021/12/04 17:35:31;;;;;;;5.10;2.00;;;6.20;99.90;;;;;;4956429;28;20212;-73
2021/12/04 17:38:00;;;;;;;3.43;1.60;;;6.20;99.90;;;;;;4955910;28;20228;-73
2021/12/04 17:40:28;;;;;;;8.33;1.40;;;6.20;99.90;;;;;;4956447;28;20215;-73
2021/12/04 17:42:55;;;;;;;6.53;1.50;;;6.20;99.90;;;;;;4956660;28;20223;-74
2021/12/04 17:45:22;;;;;;;7.77;2.00;;;6.20;99.90;;;;;;4956586;28;20212;-74
2021/12/04 17:47:49;;;;;;;3.87;1.40;;;6.20;99.90;;;;;;4956667;28;20247;-73
2021/12/04 17:50:20;;;;;;;6.10;1.50;;;6.20;99.90;;;;;;4956906;28;20263;-73
2021/12/04 17:52:47;;;;;;;7.63;1.60;;;6.20;99.90;;;;;;4956451;28;20278;-74
2021/12/04 17:55:15;;;;;;;3.73;2.70;;;6.20;99.90;;;;;;4966489;28;20658;-74
2021/12/04 17:57:42;;;;;;;7.13;1.90;;;6.10;99.90;;;;;;4975173;28;20577;-74
2021/12/04 18:00:12;;;;;;;8.90;1.93;;;6.10;99.90;;;;;;4974649;28;20200;-73
2021/12/04 18:02:39;;;;;;;6.27;1.90;;;6.00;99.90;;;;;;4974957;28;20217;-74
2021/12/04 18:05:09;;;;;;;10.07;2.53;;;6.00;99.90;;;;;;4957535;28;20204;-74
2021/12/04 18:07:36;;;;;;;18.00;4.67;;;6.00;99.90;;;;;;4955861;28;20228;-73
2021/12/04 18:10:06;;;;;;;10.00;1.93;;;6.00;99.90;;;;;;4955771;28;20567;-74
2021/12/04 18:12:38;;;;;;;7.47;2.60;;;5.90;99.90;;;;;;4956005;28;20689;-74
2021/12/04 18:15:07;;;;;;;3.00;1.30;;;5.80;99.90;;;;;;4961386;28;20206;-73
2021/12/04 18:17:33;;;;;;;7.50;1.60;;;5.80;99.90;;;;;;4975423;28;20234;-73
2021/12/04 18:20:01;;;;;;;5.57;1.57;;;5.60;99.90;;;;;;4974074;28;20574;-73
2021/12/04 18:22:28;;;;;;;6.43;1.90;;;5.60;99.90;;;;;;4961806;28;20231;-73
2021/12/04 18:24:55;;;;;;;5.40;1.70;;;5.60;99.90;;;;;;4955960;28;20204;-73
2021/12/04 18:27:22;;;;;;;10.83;2.40;;;5.60;99.90;;;;;;4955553;28;20214;-74
2021/12/04 18:29:50;;;;;;;9.37;1.67;;;5.60;99.90;;;;;;4955644;28;20207;-73
2021/12/04 18:32:17;;;;;;;6.67;1.63;;;5.50;99.90;;;;;;4955466;28;20662;-73
2021/12/04 18:34:44;;;;;;;4.77;1.83;;;5.50;99.90;;;;;;4955574;28;20212;-74
2021/12/04 18:37:12;;;;;;;8.17;2.53;;;5.40;99.90;;;;;;4962560;28;20565;-74
2021/12/04 18:39:39;;;;;;;7.73;1.93;;;5.40;99.90;;;;;;4974319;28;20213;-73
2021/12/04 18:42:07;;;;;;;7.63;1.73;;;5.30;99.90;;;;;;4969950;28;20214;-73
2021/12/04 18:44:36;;;;;;;8.37;2.10;;;5.30;99.90;;;;;;4966052;28;20555;-73
2021/12/04 18:47:05;;;;;;;4.33;2.07;;;5.30;99.90;;;;;;4973553;28;20207;-73
2021/12/04 18:49:32;;;;;;;7.10;1.87;;;5.20;99.90;;;;;;4973893;28;20716;-73
2021/12/04 18:51:59;;;;;;;4.33;1.53;;;5.20;99.90;;;;;;4973599;28;20715;-73
2021/12/04 18:54:27;;;;;;;5.47;1.57;;;5.20;99.90;;;;;;4973925;28;20203;-73
2021/12/04 18:56:58;;;;;;;20.87;8.77;;;5.20;99.90;;;;;;4972583;28;20208;-73
2021/12/04 18:59:25;;;;;;;8.00;2.87;;;5.20;99.90;;;;;;4965539;28;20358;-73
2021/12/04 19:01:57;;;;;;;4.63;2.00;;;5.20;99.90;;;;;;4970988;28;20653;-73
2021/12/04 19:04:26;;;;;;;5.17;1.70;;;5.20;99.90;;;;;;4970912;28;20230;-73
2021/12/04 19:06:53;;;;;;;6.03;1.70;;;5.10;99.90;;;;;;4974019;28;20693;-74
2021/12/04 19:09:20;;;;;;;6.80;2.10;;;5.10;99.90;;;;;;4954315;28;20228;-74
2021/12/04 19:11:47;;;;;;;4.43;2.13;;;5.10;99.90;;;;;;4960092;28;20227;-73
2021/12/04 19:14:14;;;;;;;3.83;1.97;;;5.20;99.90;;;;;;4974077;28;20206;-73
2021/12/04 19:16:41;;;;;;;10.80;2.00;;;5.20;99.90;;;;;;4974314;28;20211;-73
2021/12/04 19:19:08;;;;;;;5.17;2.10;;;5.10;99.90;;;;;;4974114;28;20226;-74
2021/12/04 19:21:37;;;;;;;5.23;1.97;;;5.00;99.90;;;;;;4974354;28;20218;-74
2021/12/04 19:24:04;;;;;;;8.57;2.20;;;5.10;99.90;;;;;;4974196;28;20211;-74
2021/12/04 19:26:32;;;;;;;9.13;2.63;;;5.00;99.90;;;;;;4958691;28;20200;-73
2021/12/04 19:29:00;;;;;;;8.70;2.53;;;4.90;99.90;;;;;;4954950;28;20273;-72
2021/12/04 19:31:33;;;;;;;6.17;1.97;;;4.90;99.90;;;;;;4954421;28;20232;-73
2021/12/04 19:48:20;;;;;;;9.33;2.13;;;4.80;99.90;;;;;;4949971;28;20238;-74
2021/12/04 19:50:51;;;;;;;11.30;2.47;;;4.80;99.90;;;;;;4953031;28;20594;-73
2021/12/04 19:53:39;;;;;;;8.97;1.57;;;4.70;99.90;;;;;;4954008;28;20215;-74
2021/12/04 19:56:14;;;;;;;11.23;1.87;;;4.60;99.90;;;;;;4954407;28;20243;-73
2021/12/04 19:58:43;;;;;;;8.00;2.13;;;4.60;99.90;;;;;;4953914;28;20236;-73
2021/12/04 20:01:20;;;;;;;10.40;2.30;;;4.60;99.90;;;;;;4954190;28;20602;-74
2021/12/04 20:04:16;;;;;;;5.67;2.50;;;4.70;99.90;;;;;;4954028;28;20254;-74
2021/12/04 20:06:51;;;;;;;8.53;2.07;;;4.70;99.90;;;;;;4954313;28;20296;-74
2021/12/04 20:09:49;;;;;;;16.67;2.30;;;4.70;99.90;;;;;;4954203;28;20246;-73
2021/12/04 20:15:06;;;;;;;7.73;2.17;;;4.80;99.90;;;;;;4954036;29;20210;-74
2021/12/04 20:17:34;;;;;;;6.03;3.00;;;4.90;99.90;;;;;;4953588;28;20224;-75
2021/12/04 20:20:01;;;;;;;5.50;2.03;;;4.90;99.90;;;;;;4953657;28;20612;-73
2021/12/04 20:22:28;;;;;;;3.07;1.83;;;5.00;99.90;;;;;;4953724;28;20282;-74
2021/12/04 20:24:58;;;;;;;7.83;3.03;;;5.00;99.90;;;;;;4953076;28;20215;-73
2021/12/04 20:27:33;;;;;;;6.30;2.33;;;5.10;99.90;;;;;;4953786;28;20295;-73
2021/12/04 20:30:10;;;;;;;4.67;1.80;;;5.20;99.90;;;;;;4953483;28;20263;-73
2021/12/04 20:32:55;;;;;;;6.27;1.73;;;5.20;99.90;;;;;;4953636;28;20246;-72
2021/12/04 20:38:48;;;;;;;7.53;2.10;;;5.30;99.90;;;;;;4953772;28;20702;-74
2021/12/04 21:08:59;;;;;;;10.73;2.30;;;4.70;99.90;;;;;;4957131;29;20231;-74
2021/12/04 21:11:41;;;;;;;3.47;1.80;;;4.70;99.90;;;;;;4956884;28;20236;-73
